Joplin, Missouri
Current Conditions -  °F | °C
As of 12:53 PM on Thursday 23 Oct 2014 (Local Time) from KJLN Reporting Station
Overcast Overcast  
Wind Chill: 58°   Ceiling: 700
Heat Index: 58°   Visibility: 8mi
Dew Point: 57°   Wind: 8mph
Humidity: 97%   Direction: 190°S
Pressure: 30.16"   Gusts: NA
Location:  37.09°N, 94.51°W
Report Text: KJLN 231753Z 19007KT 8SM BKN007 OVC055 14/14 A3016 RMK AO2 RAE37 SLP210 P0000 60001 T01440139 10144 20139 58007
Loading
Personal Weather Stations






























Interactive Weather Map
Tropical Storm Tracking
New forecast layout! Learn more

10-Day Weather Forecast

Advertisements
Track Severe Weather on mobile